createdAt,value
2018-08-28T00:01:19.987Z,9.60
2018-08-28T00:03:48.075Z,8.03
2018-08-28T00:06:16.137Z,5.78
2018-08-28T00:08:44.187Z,6.40
2018-08-28T00:11:12.299Z,7.90
2018-08-28T00:13:40.373Z,8.43
2018-08-28T00:16:08.443Z,5.90
2018-08-28T00:18:36.520Z,5.62
2018-08-28T00:21:04.840Z,8.87
2018-08-28T00:23:32.904Z,7.40
2018-08-28T00:26:01.115Z,7.17
2018-08-28T00:28:29.171Z,7.53
2018-08-28T00:30:57.245Z,6.40
2018-08-28T00:33:25.454Z,6.50
2018-08-28T00:35:53.530Z,7.20
2018-08-28T00:38:21.583Z,8.50
2018-08-28T00:40:49.683Z,6.97
2018-08-28T00:43:17.755Z,5.77
2018-08-28T00:45:45.982Z,8.67
2018-08-28T00:48:14.029Z,6.17
2018-08-28T00:50:42.072Z,6.27
2018-08-28T00:53:10.279Z,5.23
2018-08-28T00:55:38.359Z,9.10
2018-08-28T00:58:06.456Z,6.50
2018-08-28T01:00:34.659Z,5.27
2018-08-28T01:03:02.723Z,5.73
2018-08-28T01:05:30.778Z,7.10
2018-08-28T01:07:58.846Z,7.67
2018-08-28T01:10:26.899Z,9.37
2018-08-28T01:12:54.958Z,6.43
2018-08-28T01:15:23.014Z,9.03
2018-08-28T01:17:51.074Z,6.43
2018-08-28T01:20:19.120Z,5.42
2018-08-28T01:22:47.168Z,8.70
2018-08-28T01:25:15.303Z,5.87
2018-08-28T01:27:43.355Z,7.30
2018-08-28T01:30:11.416Z,6.27
2018-08-28T01:32:39.666Z,8.60
2018-08-28T01:35:07.739Z,7.97
2018-08-28T01:37:35.818Z,6.40
2018-08-28T01:40:04.962Z,5.00
2018-08-28T01:42:33.018Z,7.80
2018-08-28T01:45:01.082Z,6.30
2018-08-28T01:47:29.287Z,6.30
2018-08-28T01:49:57.347Z,11.70
2018-08-28T01:52:25.411Z,6.97
2018-08-28T01:54:53.462Z,9.77
2018-08-28T01:57:21.533Z,10.65
2018-08-28T01:59:49.596Z,7.73
2018-08-28T02:02:17.666Z,7.60
2018-08-28T02:04:45.731Z,10.70
2018-08-28T02:07:13.794Z,8.30
2018-08-28T02:09:41.849Z,9.43
2018-08-28T02:12:09.910Z,6.47
2018-08-28T02:14:38.012Z,11.20
2018-08-28T02:17:06.138Z,8.87
2018-08-28T02:19:34.238Z,6.67
2018-08-28T02:22:02.287Z,9.67
2018-08-28T02:24:30.343Z,9.17
2018-08-28T02:26:58.454Z,8.18
2018-08-28T02:29:26.526Z,7.80
2018-08-28T02:31:54.619Z,9.03
2018-08-28T02:34:22.706Z,6.83
2018-08-28T02:36:50.766Z,7.27
2018-08-28T02:39:18.817Z,8.43
2018-08-28T02:41:46.883Z,7.20
2018-08-28T02:44:14.942Z,7.07
2018-08-28T02:46:43.179Z,8.90
2018-08-28T02:49:11.228Z,9.60
2018-08-28T02:51:39.322Z,8.20
2018-08-28T02:54:07.597Z,9.10
2018-08-28T02:56:35.651Z,6.33
2018-08-28T02:59:03.854Z,7.37
2018-08-28T03:01:31.913Z,8.93
2018-08-28T03:03:59.982Z,9.57
2018-08-28T03:06:28.046Z,8.93
2018-08-28T03:08:56.150Z,8.83
2018-08-28T03:11:24.249Z,9.33
2018-08-28T03:13:52.278Z,7.73
2018-08-28T03:16:20.395Z,8.17
2018-08-28T03:18:48.458Z,9.90
2018-08-28T03:21:16.674Z,10.08
2018-08-28T03:23:44.766Z,7.93
2018-08-28T03:26:12.831Z,7.30
2018-08-28T03:28:40.913Z,8.13
2018-08-28T03:31:08.982Z,9.70
2018-08-28T03:33:37.047Z,9.83
2018-08-28T03:36:05.111Z,9.40
2018-08-28T03:38:33.392Z,9.03
2018-08-28T03:41:01.490Z,7.33
2018-08-28T03:43:29.543Z,9.00
2018-08-28T03:45:57.658Z,9.73
2018-08-28T03:48:25.855Z,10.27
2018-08-28T03:50:53.983Z,9.30
2018-08-28T03:53:22.203Z,11.12
2018-08-28T03:55:50.332Z,10.20
2018-08-28T03:58:18.586Z,7.73
2018-08-28T04:00:46.660Z,9.90
2018-08-28T04:03:14.706Z,7.37
2018-08-28T04:05:42.858Z,9.80
2018-08-28T04:08:10.914Z,8.30
2018-08-28T04:10:39.018Z,7.60
2018-08-28T04:13:07.146Z,10.85
2018-08-28T04:15:35.231Z,9.47
2018-08-28T04:18:03.283Z,9.37
2018-08-28T04:20:31.399Z,8.37
2018-08-28T04:22:59.445Z,7.33
2018-08-28T04:25:27.537Z,9.27
2018-08-28T04:27:55.763Z,8.27
2018-08-28T04:30:23.870Z,10.70
2018-08-28T04:32:52.031Z,9.00
2018-08-28T04:35:20.360Z,9.18
2018-08-28T04:37:48.442Z,9.43
2018-08-28T04:40:16.689Z,8.88
2018-08-28T04:42:44.755Z,8.80
2018-08-28T04:45:12.925Z,7.87
2018-08-28T04:47:40.994Z,10.57
2018-08-28T04:50:09.057Z,8.33
2018-08-28T04:52:37.987Z,8.57
2018-08-28T04:55:06.533Z,10.33
2018-08-28T04:57:34.627Z,10.17
2018-08-28T05:00:02.667Z,7.83
2018-08-28T05:02:35.770Z,12.03
2018-08-28T05:05:05.572Z,9.20
2018-08-28T05:07:33.758Z,10.40
2018-08-28T05:10:01.871Z,10.23
2018-08-28T05:12:30.023Z,10.05
2018-08-28T05:14:58.859Z,9.63
2018-08-28T05:17:26.922Z,9.00
2018-08-28T05:19:55.227Z,10.70
2018-08-28T05:22:23.999Z,11.03
2018-08-28T05:24:52.546Z,9.30
2018-08-28T05:27:21.934Z,10.50
2018-08-28T05:29:50.205Z,10.43
2018-08-28T05:32:18.255Z,12.70
2018-08-28T05:34:46.938Z,14.40
2018-08-28T05:37:15.088Z,12.03
2018-08-28T05:39:43.142Z,12.17
2018-08-28T05:42:11.231Z,11.43
2018-08-28T05:44:39.342Z,10.60
2018-08-28T05:47:07.429Z,13.27
2018-08-28T05:49:35.637Z,11.67
2018-08-28T05:52:04.779Z,11.75
2018-08-28T05:54:32.851Z,15.77
2018-08-28T05:57:01.041Z,10.80
2018-08-28T05:59:29.114Z,12.20
2018-08-28T06:01:57.228Z,11.83
2018-08-28T06:04:25.340Z,10.60
2018-08-28T06:06:53.595Z,9.40
2018-08-28T06:09:21.684Z,9.70
2018-08-28T06:11:49.802Z,10.60
2018-08-28T06:14:17.894Z,12.53
2018-08-28T06:16:46.291Z,11.63
2018-08-28T06:19:14.393Z,9.93
2018-08-28T06:21:42.476Z,11.63
2018-08-28T06:24:11.114Z,17.17
2018-08-28T06:26:39.275Z,11.40
2018-08-28T06:29:07.588Z,12.43
2018-08-28T06:31:35.735Z,8.03
2018-08-28T06:34:03.846Z,11.90
2018-08-28T06:36:31.907Z,11.00
2018-08-28T06:39:00.458Z,10.53
2018-08-28T06:41:28.563Z,11.77
2018-08-28T06:43:56.707Z,13.23
2018-08-28T06:46:24.715Z,11.07
2018-08-28T06:48:52.854Z,13.07
2018-08-28T06:51:21.161Z,13.63
2018-08-28T06:53:49.588Z,13.63
2018-08-28T06:56:17.911Z,14.68
2018-08-28T06:58:46.008Z,13.67
2018-08-28T07:01:14.328Z,16.10
2018-08-28T07:03:42.513Z,16.77
2018-08-28T07:06:10.814Z,12.13
2018-08-28T07:08:38.935Z,14.27
2018-08-28T07:11:07.343Z,14.30
2018-08-28T07:13:35.437Z,12.80
2018-08-28T07:16:03.715Z,12.15
2018-08-28T07:18:32.102Z,12.70
2018-08-28T07:21:00.195Z,14.50
2018-08-28T07:23:28.313Z,14.23
2018-08-28T07:25:56.508Z,12.43
2018-08-28T07:28:24.515Z,12.37
2018-08-28T07:30:52.776Z,13.60
2018-08-28T07:33:21.195Z,13.78
2018-08-28T07:35:49.282Z,14.13
2018-08-28T07:38:17.850Z,15.10
2018-08-28T07:40:45.967Z,14.40
2018-08-28T07:43:14.119Z,15.10
2018-08-28T07:45:42.233Z,12.63
2018-08-28T07:48:10.474Z,14.73
2018-08-28T07:50:38.623Z,14.77
2018-08-28T07:53:06.711Z,12.57
2018-08-28T07:55:34.995Z,18.20
2018-08-28T07:58:03.127Z,16.57
2018-08-28T08:00:31.241Z,13.40
2018-08-28T08:02:59.790Z,14.87
2018-08-28T08:05:27.886Z,17.03
2018-08-28T08:07:55.990Z,15.73
2018-08-28T08:10:24.127Z,11.35
2018-08-28T08:12:52.204Z,13.70
2018-08-28T08:15:20.315Z,13.17
2018-08-28T08:17:48.459Z,14.67
2018-08-28T08:20:16.547Z,13.03
2018-08-28T08:22:44.655Z,15.13
2018-08-28T08:25:12.762Z,15.13
2018-08-28T08:27:41.176Z,13.37
2018-08-28T08:30:09.355Z,13.33
2018-08-28T08:32:37.444Z,13.20
2018-08-28T08:35:06.531Z,15.63
2018-08-28T08:37:34.932Z,13.03
2018-08-28T08:40:03.031Z,14.73
2018-08-28T08:42:31.123Z,14.90
2018-08-28T08:44:59.520Z,12.53
2018-08-28T08:47:27.598Z,15.03
2018-08-28T08:49:55.689Z,14.07
2018-08-28T08:52:23.835Z,13.00
2018-08-28T08:54:51.964Z,13.93
2018-08-28T08:57:20.041Z,14.20
2018-08-28T08:59:48.126Z,15.90
2018-08-28T09:02:16.271Z,15.48
2018-08-28T09:04:44.359Z,16.27
2018-08-28T09:07:12.745Z,15.93
2018-08-28T09:09:40.843Z,16.97
2018-08-28T09:12:15.628Z,14.23
2018-08-28T09:14:43.720Z,18.83
2018-08-28T09:17:11.818Z,15.72
2018-08-28T09:19:40.045Z,14.13
2018-08-28T09:22:08.170Z,12.70
2018-08-28T09:24:36.336Z,14.60
2018-08-28T09:27:04.787Z,15.03
2018-08-28T09:29:33.059Z,14.40
2018-08-28T09:32:01.196Z,15.20
2018-08-28T09:34:29.511Z,14.67
2018-08-28T09:36:57.592Z,14.63
2018-08-28T09:39:25.695Z,15.10
2018-08-28T09:41:53.807Z,13.33
2018-08-28T09:44:22.667Z,13.27
2018-08-28T09:46:50.775Z,16.53
2018-08-28T09:49:18.864Z,15.40
2018-08-28T09:51:46.976Z,13.20
2018-08-28T09:54:15.068Z,13.35
2018-08-28T09:56:43.220Z,13.57
2018-08-28T09:59:11.444Z,13.30
2018-08-28T10:01:45.027Z,13.90
2018-08-28T10:04:14.268Z,13.17
2018-08-28T10:06:42.435Z,11.83
2018-08-28T10:09:13.114Z,12.67
2018-08-28T10:11:41.902Z,12.37
2018-08-28T10:14:10.755Z,12.58
2018-08-28T10:16:39.039Z,12.57
2018-08-28T10:19:07.650Z,10.60
2018-08-28T10:21:36.131Z,11.73
2018-08-28T10:24:04.444Z,15.40
2018-08-28T10:26:33.099Z,13.63
2018-08-28T10:29:01.387Z,12.37
2018-08-28T10:31:29.564Z,11.97
2018-08-28T10:33:57.822Z,12.83
2018-08-28T10:36:26.087Z,13.27
2018-08-28T10:38:54.183Z,15.23
2018-08-28T10:41:22.746Z,11.33
2018-08-28T10:43:50.856Z,13.10
2018-08-28T10:46:19.067Z,13.63
2018-08-28T10:48:47.578Z,11.33
2018-08-28T10:51:16.584Z,11.80
2018-08-28T10:53:45.243Z,11.53
2018-08-28T10:56:13.340Z,10.80
2018-08-28T10:58:41.469Z,11.40
2018-08-28T11:01:09.772Z,11.65
2018-08-28T11:03:37.946Z,11.63
2018-08-28T11:06:06.026Z,12.17
2018-08-28T11:08:34.139Z,11.93
2018-08-28T11:11:02.208Z,13.70
2018-08-28T11:13:30.329Z,11.40
2018-08-28T11:15:58.417Z,12.03
2018-08-28T11:18:26.530Z,11.20
2018-08-28T11:20:54.753Z,11.20
2018-08-28T11:23:23.066Z,10.70
2018-08-28T11:25:51.406Z,9.33
2018-08-28T11:28:19.531Z,11.27
2018-08-28T11:30:47.635Z,10.27
2018-08-28T11:33:16.031Z,11.03
2018-08-28T11:35:44.210Z,10.17
2018-08-28T11:38:12.258Z,12.43
2018-08-28T11:40:40.747Z,10.00
2018-08-28T11:43:08.844Z,9.97
2018-08-28T11:45:37.288Z,9.13
2018-08-28T11:48:06.007Z,9.30
2018-08-28T11:50:34.119Z,7.63
2018-08-28T11:53:02.384Z,9.23
2018-08-28T11:55:31.047Z,9.10
2018-08-28T11:57:59.103Z,9.37
2018-08-28T12:00:27.211Z,8.83
2018-08-28T12:02:55.300Z,9.60
2018-08-28T12:05:23.559Z,9.50
2018-08-28T12:07:52.626Z,9.70
2018-08-28T12:10:20.778Z,8.27
2018-08-28T12:12:48.851Z,11.43
2018-08-28T12:15:16.922Z,10.53
2018-08-28T12:17:45.155Z,13.93
2018-08-28T12:20:13.241Z,9.17
2018-08-28T12:22:41.324Z,9.10
2018-08-28T12:25:10.134Z,11.23
2018-08-28T12:27:38.408Z,7.63
2018-08-28T12:30:07.328Z,8.43
2018-08-28T12:32:35.396Z,6.93
2018-08-28T12:35:03.471Z,6.63
2018-08-28T12:37:31.560Z,8.43
2018-08-28T12:39:59.782Z,7.27
2018-08-28T12:42:27.859Z,5.83
2018-08-28T12:44:56.166Z,6.27
2018-08-28T12:47:24.530Z,6.87
2018-08-28T12:49:52.615Z,6.33
2018-08-28T12:52:20.962Z,8.93
2018-08-28T12:54:49.108Z,7.30
2018-08-28T12:57:17.373Z,7.40
2018-08-28T12:59:45.630Z,8.27
2018-08-28T13:02:14.060Z,8.00
2018-08-28T13:04:42.050Z,6.80
2018-08-28T13:07:10.355Z,5.58
2018-08-28T13:09:38.373Z,6.07
2018-08-28T13:12:06.477Z,4.80
2018-08-28T13:14:34.861Z,5.03
2018-08-28T13:17:02.910Z,4.33
2018-08-28T13:19:31.008Z,4.33
2018-08-28T13:21:59.109Z,4.40
2018-08-28T13:24:27.195Z,5.90
2018-08-28T13:26:55.332Z,5.60
2018-08-28T13:29:23.602Z,5.67
2018-08-28T13:31:51.702Z,5.00
2018-08-28T13:34:19.787Z,4.20
2018-08-28T13:36:47.891Z,4.67
2018-08-28T13:39:16.198Z,5.23
2018-08-28T13:41:44.628Z,4.80
2018-08-28T13:44:13.623Z,4.97
2018-08-28T13:46:41.708Z,5.47
2018-08-28T13:49:09.810Z,4.77
2018-08-28T13:51:38.353Z,4.83
2018-08-28T13:54:06.479Z,5.27
2018-08-28T13:56:34.559Z,4.60
2018-08-28T13:59:03.066Z,5.17
2018-08-28T14:01:31.164Z,4.83
2018-08-28T14:03:59.236Z,4.53
2018-08-28T14:06:27.416Z,5.50
2018-08-28T14:08:55.496Z,5.87
2018-08-28T14:11:23.637Z,6.03
2018-08-28T14:13:51.802Z,5.80
2018-08-28T14:16:19.803Z,5.37
2018-08-28T14:18:48.386Z,5.17
2018-08-28T14:21:16.449Z,5.47
2018-08-28T14:23:44.571Z,5.63
2018-08-28T14:26:12.688Z,5.23
2018-08-28T14:28:40.836Z,4.67
2018-08-28T14:31:09.072Z,5.03
2018-08-28T14:33:37.151Z,5.80
2018-08-28T14:36:05.508Z,6.93
2018-08-28T14:38:33.887Z,5.07
2018-08-28T14:41:01.997Z,5.60
2018-08-28T14:43:30.245Z,7.00
2018-08-28T14:45:58.328Z,5.17
2018-08-28T14:48:26.425Z,6.00
2018-08-28T14:50:54.517Z,7.60
2018-08-28T14:53:23.557Z,5.72
2018-08-28T14:55:51.644Z,6.40
2018-08-28T14:58:19.724Z,6.03
2018-08-28T15:00:47.827Z,6.03
2018-08-28T15:03:15.934Z,7.58
2018-08-28T15:05:44.082Z,5.33
2018-08-28T15:08:12.218Z,5.25
2018-08-28T15:10:40.345Z,6.23
2018-08-28T15:13:08.441Z,6.27
2018-08-28T15:15:36.752Z,5.63
2018-08-28T15:18:04.852Z,7.33
2018-08-28T15:20:32.967Z,5.70
2018-08-28T15:23:01.232Z,5.03
2018-08-28T15:25:29.288Z,6.00
2018-08-28T15:27:57.376Z,6.00
2018-08-28T15:30:25.482Z,5.70
2018-08-28T15:32:53.657Z,6.70
2018-08-28T15:35:21.743Z,5.63
2018-08-28T15:37:49.860Z,5.70
2018-08-28T15:40:17.994Z,6.80
2018-08-28T15:42:46.172Z,4.87
2018-08-28T15:45:14.262Z,5.70
2018-08-28T15:47:42.343Z,5.20
2018-08-28T15:50:10.437Z,6.20
2018-08-28T15:52:38.532Z,6.00
2018-08-28T15:55:06.645Z,7.37
2018-08-28T15:57:34.756Z,5.57
2018-08-28T16:00:02.879Z,5.50
2018-08-28T16:02:30.961Z,5.13
2018-08-28T16:04:59.122Z,5.30
2018-08-28T16:07:27.208Z,5.13
2018-08-28T16:09:55.291Z,4.83
2018-08-28T16:12:23.750Z,5.07
2018-08-28T16:14:52.055Z,5.07
2018-08-28T16:17:20.146Z,5.13
2018-08-28T16:19:48.224Z,5.87
2018-08-28T16:22:20.429Z,5.00
2018-08-28T16:24:48.673Z,4.90
2018-08-28T16:27:16.794Z,4.73
2018-08-28T16:29:45.083Z,4.70
2018-08-28T16:32:13.134Z,5.20
2018-08-28T16:34:41.446Z,5.80
2018-08-28T16:37:09.998Z,5.60
2018-08-28T16:39:38.079Z,6.57
2018-08-28T16:42:06.088Z,5.93
2018-08-28T16:44:34.680Z,6.53
2018-08-28T16:47:02.810Z,6.30
2018-08-28T16:49:31.153Z,6.10
2018-08-28T16:52:05.488Z,5.37
2018-08-28T16:54:33.767Z,5.00
2018-08-28T16:57:01.877Z,4.80
2018-08-28T16:59:29.954Z,4.93
2018-08-28T17:01:58.052Z,6.17
2018-08-28T17:04:26.099Z,5.93
2018-08-28T17:06:54.198Z,4.73
2018-08-28T17:09:22.425Z,5.15
2018-08-28T17:11:50.496Z,5.33
2018-08-28T17:14:18.588Z,6.83
2018-08-28T17:16:46.806Z,7.60
2018-08-28T17:19:14.956Z,6.90
2018-08-28T17:21:42.979Z,6.30
2018-08-28T17:24:11.234Z,6.35
2018-08-28T17:26:39.309Z,6.27
2018-08-28T17:29:07.394Z,6.03
2018-08-28T17:31:34.526Z,5.47
2018-08-28T17:34:02.604Z,5.30
2018-08-28T17:36:30.793Z,5.73
2018-08-28T17:38:58.882Z,7.73
2018-08-28T17:41:26.943Z,7.30
2018-08-28T17:43:55.167Z,7.37
2018-08-28T17:46:23.252Z,7.13
2018-08-28T17:48:51.379Z,6.23
2018-08-28T17:51:19.420Z,6.22
2018-08-28T17:53:47.499Z,5.83
2018-08-28T17:56:15.579Z,6.23
2018-08-28T17:58:43.810Z,6.63
2018-08-28T18:01:11.984Z,7.53
2018-08-28T18:03:40.039Z,6.33
2018-08-28T18:06:08.129Z,5.97
2018-08-28T18:08:36.191Z,6.43
2018-08-28T18:11:04.664Z,7.37
2018-08-28T18:13:32.753Z,5.83
2018-08-28T18:16:00.863Z,8.28
2018-08-28T18:18:28.934Z,6.33
2018-08-28T18:20:57.044Z,6.83
2018-08-28T18:23:25.119Z,6.57
2018-08-28T18:25:53.205Z,6.40
2018-08-28T18:28:21.293Z,6.20
2018-08-28T18:30:49.371Z,6.10
2018-08-28T18:33:17.450Z,6.37
2018-08-28T18:35:45.555Z,6.53
2018-08-28T18:38:14.134Z,7.87
2018-08-28T18:40:42.218Z,7.30
2018-08-28T18:43:10.347Z,7.67
2018-08-28T18:45:38.429Z,7.00
2018-08-28T18:48:06.499Z,6.93
2018-08-28T18:50:34.615Z,7.43
2018-08-28T18:53:02.686Z,6.40
2018-08-28T18:55:30.994Z,11.10
2018-08-28T18:57:59.077Z,8.77
2018-08-28T19:00:27.154Z,7.20
2018-08-28T19:02:55.332Z,11.77
2018-08-28T19:05:23.389Z,12.63
2018-08-28T19:07:51.506Z,11.03
2018-08-28T19:10:19.533Z,13.40
2018-08-28T19:12:47.780Z,12.70
2018-08-28T19:15:15.874Z,10.75
2018-08-28T19:17:43.966Z,12.43
2018-08-28T19:20:12.051Z,9.88
2018-08-28T19:22:40.171Z,8.40
2018-08-28T19:25:08.288Z,8.57
2018-08-28T19:27:36.374Z,9.90
2018-08-28T19:30:04.676Z,8.70
2018-08-28T19:32:32.911Z,8.93
2018-08-28T19:35:01.056Z,8.03
2018-08-28T19:37:29.231Z,9.57
2018-08-28T19:39:57.348Z,8.63
2018-08-28T19:42:25.436Z,9.53
2018-08-28T19:44:53.509Z,8.77
2018-08-28T19:47:21.707Z,7.57
2018-08-28T19:49:49.790Z,11.30
2018-08-28T19:52:17.853Z,9.08
2018-08-28T19:54:45.966Z,8.70
2018-08-28T19:57:14.210Z,10.00
2018-08-28T19:59:42.325Z,8.03
2018-08-28T20:02:10.475Z,7.85
2018-08-28T20:04:38.733Z,13.00
2018-08-28T20:07:06.844Z,11.03
2018-08-28T20:09:34.920Z,9.97
2018-08-28T20:12:03.159Z,9.20
2018-08-28T20:14:31.284Z,8.23
2018-08-28T20:16:59.382Z,9.03
2018-08-28T20:19:27.476Z,8.17
2018-08-28T20:21:55.559Z,10.47
2018-08-28T20:24:23.624Z,9.37
2018-08-28T20:26:51.905Z,10.17
2018-08-28T20:29:19.958Z,9.03
2018-08-28T20:31:48.047Z,10.80
2018-08-28T20:34:16.134Z,9.83
2018-08-28T20:36:44.441Z,9.50
2018-08-28T20:39:12.524Z,10.40
2018-08-28T20:41:40.607Z,9.93
2018-08-28T20:44:08.686Z,10.80
2018-08-28T20:46:36.748Z,9.20
2018-08-28T20:49:04.899Z,8.73
2018-08-28T20:51:33.031Z,8.90
2018-08-28T20:54:01.126Z,8.63
2018-08-28T20:56:29.193Z,9.23
2018-08-28T20:58:57.318Z,10.03
2018-08-28T21:01:25.403Z,9.67
2018-08-28T21:03:53.488Z,10.93
2018-08-28T21:06:21.729Z,12.10
2018-08-28T21:08:49.819Z,15.65
2018-08-28T21:11:17.894Z,13.47
2018-08-28T21:13:45.981Z,12.17
2018-08-28T21:16:14.058Z,10.17
2018-08-28T21:18:42.130Z,11.57
2018-08-28T21:21:10.231Z,9.87
2018-08-28T21:23:38.325Z,10.83
2018-08-28T21:26:06.605Z,10.23
2018-08-28T21:28:34.802Z,10.23
2018-08-28T21:31:02.881Z,10.90
2018-08-28T21:33:31.011Z,11.00
2018-08-28T21:35:59.234Z,9.97
2018-08-28T21:38:27.334Z,9.97
2018-08-28T21:40:55.411Z,10.03
2018-08-28T21:43:23.539Z,10.87
2018-08-28T21:45:51.606Z,11.13
2018-08-28T21:48:19.779Z,11.13
2018-08-28T21:50:47.766Z,10.23
2018-08-28T21:53:15.851Z,9.90
2018-08-28T21:55:44.094Z,9.80
2018-08-28T21:58:12.175Z,9.87
2018-08-28T22:00:40.244Z,10.17
2018-08-28T22:03:08.495Z,11.03
2018-08-28T22:05:36.562Z,9.80
2018-08-28T22:08:05.551Z,9.73
2018-08-28T22:10:33.873Z,11.47
2018-08-28T22:13:01.990Z,10.60
2018-08-28T22:15:30.090Z,10.93
2018-08-28T22:17:58.306Z,12.17
2018-08-28T22:20:26.385Z,10.63
2018-08-28T22:22:54.450Z,9.70
2018-08-28T22:25:22.665Z,10.20
2018-08-28T22:27:50.740Z,9.83
2018-08-28T22:30:18.810Z,11.43
2018-08-28T22:32:47.043Z,11.27
2018-08-28T22:35:15.111Z,9.98
2018-08-28T22:37:43.188Z,11.23
2018-08-28T22:40:12.186Z,10.20
2018-08-28T22:42:40.254Z,10.03
2018-08-28T22:45:08.320Z,10.80
2018-08-28T22:47:36.390Z,10.30
2018-08-28T22:50:05.888Z,11.00
2018-08-28T22:52:33.956Z,10.13
2018-08-28T22:55:02.135Z,11.25
2018-08-28T22:57:30.206Z,10.47
2018-08-28T22:59:58.278Z,11.13
2018-08-28T23:02:26.341Z,10.93
2018-08-28T23:04:54.446Z,10.97
2018-08-28T23:07:22.571Z,10.75
2018-08-28T23:09:50.662Z,10.37
2018-08-28T23:12:18.755Z,12.07
2018-08-28T23:14:46.839Z,9.93
2018-08-28T23:17:14.952Z,11.68
2018-08-28T23:19:43.042Z,11.20
2018-08-28T23:22:11.105Z,15.65
2018-08-28T23:24:39.231Z,16.10
2018-08-28T23:27:07.346Z,12.10
2018-08-28T23:29:35.592Z,12.93
2018-08-28T23:32:03.688Z,15.48
2018-08-28T23:34:31.751Z,13.33
2018-08-28T23:36:59.835Z,12.20
2018-08-28T23:39:27.899Z,13.03
2018-08-28T23:41:55.966Z,13.17
2018-08-28T23:44:24.068Z,12.40
2018-08-28T23:46:52.139Z,14.00
2018-08-28T23:49:20.205Z,14.77
2018-08-28T23:51:48.435Z,12.67
2018-08-28T23:54:16.538Z,12.60
2018-08-28T23:56:44.599Z,12.80
2018-08-28T23:59:12.712Z,13.30
